Flight Track Log - Related Links

Times and Time Zones

All times are in EDT time to prevent confusion due to time zone crossing. See the SWA1096 flight status page for this flight to view local times or setup timezone preferences in your user account.

Time Position Orientation Groundspeed Altitude Reporting Facility
EDT Latitude Longitude Course Direction KTS MPH feet Rate Location/Type
Mon 09:11:04 AM 36.0761 -115.1683 272° West 140 161 3,500  Level Los Angeles Center
Mon 09:12:30 AM 36.0781 -115.2608 272° West 202 232 7,000 3,000 Climbing Los Angeles Center
Mon 09:13:18 AM 36.1319 -115.2961 332° Northwest 248 285 10,200 3,611 Climbing Los Angeles Center
Mon 09:14:18 AM 36.1817 -115.2267 48° Northeast 288 331 13,500 2,597 Climbing Los Angeles Center
Mon 09:15:32 AM 36.1978 -115.1058 81° East 330 380 16,000 2,489 Climbing Los Angeles Center
Mon 09:16:33 AM 36.1994 -114.9439 89° East 384 442 19,100 2,902 Climbing Los Angeles Center
Mon 09:17:34 AM 36.2089 -114.7947 85° East 425 489 21,900 2,607 Climbing Los Angeles Center
Mon 09:18:35 AM 36.2942 -114.6914 44° Northeast 434 499 24,400 2,361 Climbing Los Angeles Center
Mon 09:19:36 AM 36.3919 -114.5997 37° Northeast 439 505 26,700 2,281 Climbing Los Angeles Center
Mon 09:20:36 AM 36.4919 -114.5033 38° Northeast 450 518 29,000 2,380 Climbing Los Angeles Center
Mon 09:21:37 AM 36.5964 -114.4108 35° Northeast 458 527 31,500 1,967 Climbing Los Angeles Center
Mon 09:22:38 AM 36.7044 -114.3303 31° Northeast 454 522 33,000 738 Climbing Los Angeles Center
Mon 09:23:39 AM 36.8131 -114.2472 31° Northeast 457 526 33,000  Level Los Angeles Center
Mon 09:24:40 AM 36.9217 -114.1614 32° Northeast 461 531 33,000  Level Los Angeles Center
Mon 09:25:41 AM 37.0300 -114.0775 32° Northeast 459 528 33,000  Level Los Angeles Center
Mon 09:26:42 AM 37.1403 -113.9914 32° Northeast 464 534 33,000  Level Los Angeles Center
Mon 09:27:43 AM 37.2500 -113.9042 32° Northeast 467 537 33,000  Level Los Angeles Center
Mon 09:28:44 AM 37.3664 -113.8133 32° Northeast 470 541 33,000  Level Los Angeles Center
Mon 09:29:51 AM 37.4997 -113.7081 32° Northeast 471 542 33,000  Level Salt Lake Center
Mon 09:30:52 AM 37.6125 -113.6178 32° Northeast 476 548 33,000  Level Salt Lake Center
Mon 09:31:53 AM 37.7267 -113.5275 32° Northeast 480 552 33,000  Level Salt Lake Center
Mon 09:32:54 AM 37.8411 -113.4356 32° Northeast 482 555 33,000  Level Salt Lake Center
Mon 09:33:55 AM 37.9556 -113.3431 33° Northeast 484 557 33,000  Level Salt Lake Center
Mon 09:34:56 AM 38.0686 -113.2508 33° Northeast 483 556 33,000  Level Salt Lake Center
Mon 09:35:57 AM 38.1839 -113.1586 32° Northeast 486 559 33,000  Level Salt Lake Center
Mon 09:36:58 AM 38.2978 -113.0656 33° Northeast 485 558 33,000 -443 Level Salt Lake Center
Mon 09:37:59 AM 38.4142 -112.9811 30° Northeast 482 555 32,100 -984 Descending Salt Lake Center
Mon 09:39:00 AM 38.5364 -112.9194 22° Northeast 474 545 31,000 -541 Descending Salt Lake Center
Mon 09:40:01 AM 38.6611 -112.8508 23° Northeast 481 554 31,000  Level Salt Lake Center
Mon 09:41:02 AM 38.7883 -112.7853 22° Northeast 490 564 31,000  Level Salt Lake Center
Mon 09:42:03 AM 38.9139 -112.7172 23° Northeast 490 564 31,000  Level Salt Lake Center
Mon 09:43:04 AM 39.0667 -112.6342 23° Northeast 496 571 31,000  Level Salt Lake Center
Mon 09:44:05 AM 39.1942 -112.5644 23° Northeast 497 572 31,000  Level Salt Lake Center
Mon 09:45:06 AM 39.3286 -112.4944 22° Northeast 499 574 31,000 -1,279 Level Salt Lake Center
Mon 09:46:07 AM 39.4581 -112.4522 14° North 482 555 28,400 -2,459 Descending Salt Lake Center
Mon 09:47:08 AM 39.5839 -112.4103 14° North 469 540 26,000 -2,293 Descending Salt Lake Center
Mon 09:48:10 AM 39.7058 -112.3717 14° North 453 521 23,700 -2,195 Descending Salt Lake Center
Mon 09:49:11 AM 39.8244 -112.3308 15° North 446 513 21,500 -2,276 Descending Salt Lake Center
Mon 09:49:37 AM 39.8819 -112.3231 North 433 498 20,400 -2,164 Descending Salt Lake Center
Mon 09:50:12 AM 39.9378 -112.2939 22° Northeast 422 486 19,300 -2,063 Descending Salt Lake Center
Mon 09:51:13 AM 40.0442 -112.2567 15° North 399 459 17,100 -1,131 Descending Salt Lake Center
Mon 09:52:14 AM 40.1450 -112.2236 14° North 375 432 17,000 -934 Descending Salt Lake Center
Mon 09:53:15 AM 40.2403 -112.1908 15° North 357 411 15,200 -1,475 Descending Salt Lake Center
Mon 09:54:16 AM 40.3339 -112.1592 14° North 348 400 14,000 -590 Descending Salt Lake Center
Mon 09:55:17 AM 40.4264 -112.1275 15° North 344 396 14,000 -803 Level Salt Lake Center
Mon 09:56:23 AM 40.5383 -112.0928 13° North 336 387 12,300 -1,400 Descending Salt Lake Center
Mon 09:57:17 AM 40.6222 -112.0814 North 318 366 11,200 -661 Descending Salt Lake Center
Mon 09:58:21 AM 40.7067 -112.0856 358° North 299 344 11,000 -99 Descending Salt Lake Center
Mon 09:59:18 AM 40.7800 -112.0961 354° North 255 293 11,000 -429 Level Salt Lake Center
Mon 10:00:13 AM 40.8417 -112.1036 355° North 239 275 10,200 -1,131 Descending Salt Lake Center
Mon 10:01:20 AM 40.9144 -112.1128 355° North 246 283 8,700 -1,091 Descending Salt Lake Center
Mon 10:02:14 AM 40.9564 -112.0731 36° Northeast 239 275 8,000 -991 Descending Salt Lake Center
Mon 10:03:09 AM 40.9192 -112.0261 136° Southeast 214 246 6,900 -1,151 Descending Salt Lake Center
Mon 10:03:27 AM 40.9111 -112.0189 146° Southeast 213 245 6,600 -1,364 Descending Salt Lake Center
Mon 10:04:15 AM 40.8681 -112.0067 168° South 174 200 5,400 -1,101 Descending Salt Lake Center
Mon 10:05:16 AM 40.8264 -112.0039 177° South 148 170 4,600 -787 Descending Salt Lake Center
Mon 10:07:00 AM 40.7884 -111.9778 159° South  Level Estimated
Mon 10:14:00 AM 40.7884 -111.9778 159° South  Level Estimated

Login

Don't have an account? Register now (free) for customized features, flight alerts, and more!